Time;durP1;ratioP1;P1;durP2;ratioP2;P2;SDS_P1;SDS_P2;PMS_P1;PMS_P2;Temp;Humidity;BMP_temperature;BMP_pressure;BME280_temperature;BME280_humidity;BME280_pressure;Samples;Min_cycle;Max_cycle;Signal;HPM_P1;HPM_P2
2024/02/03 00:01:17;;;;;;;;;;;;;;;-0.54;100.00;97903.08;110380;1241;69554;-62
2024/02/03 00:03:53;;;;;;;;;;;;;;;-0.54;100.00;97910.11;110346;1241;59723;-62
2024/02/03 00:06:22;;;;;;;;;;;;;;;-0.54;100.00;97908.06;110391;1239;59714;-62
2024/02/03 00:08:52;;;;;;;;;;;;;;;-0.54;100.00;97905.82;110313;1242;70209;-62
2024/02/03 00:11:21;;;;;;;;;;;;;;;-0.55;100.00;97903.95;110407;1240;69165;-62
2024/02/03 00:13:53;;;;;;;;;;;;;;;-0.53;100.00;97907.34;110331;1241;69407;-62
2024/02/03 00:16:22;;;;;;;;;;;;;;;-0.53;100.00;97902.19;110385;1241;59749;-62
2024/02/03 00:18:52;;;;;;;;;;;;;;;-0.53;100.00;97886.95;110382;1241;59700;-62
2024/02/03 00:21:21;;;;;;;;;;;;;;;-0.53;100.00;97888.67;110409;1242;71955;-62
2024/02/03 00:23:51;;;;;;;;;;;;;;;-0.55;100.00;97887.00;110397;1241;69284;-62
2024/02/03 00:26:19;;;;;;;;;;;;;;;-0.56;100.00;97882.73;110399;1241;69196;-63
2024/02/03 00:28:49;;;;;;;;;;;;;;;-0.57;100.00;97880.19;110422;1239;60081;-62
2024/02/03 00:31:18;;;;;;;;;;;;;;;-0.59;100.00;97874.09;110555;1239;59776;-63
2024/02/03 00:33:47;;;;;;;;;;;;;;;-0.64;100.00;97875.55;110375;1241;71253;-63
2024/02/03 00:36:22;;;;;;;;;;;;;;;-0.70;100.00;97876.36;110394;1241;70244;-62
2024/02/03 00:38:51;;;;;;;;;;;;;;;-0.76;100.00;97872.39;110346;1241;69721;-63
2024/02/03 00:41:20;;;;;;;;;;;;;;;-0.82;100.00;97873.02;110331;1241;59754;-62
2024/02/03 00:43:49;;;;;;;;;;;;;;;-0.90;100.00;97871.30;110350;1241;59684;-62
2024/02/03 00:46:17;;;;;;;;;;;;;;;-0.98;100.00;97865.45;110404;1241;70911;-62
2024/02/03 00:48:46;;;;;;;;;;;;;;;-1.05;100.00;97866.27;110362;1241;68538;-62
2024/02/03 00:51:15;;;;;;;;;;;;;;;-1.09;100.00;97867.05;110377;1241;69335;-62
2024/02/03 00:53:44;;;;;;;;;;;;;;;-1.13;100.00;97863.69;110348;1241;59744;-62
2024/02/03 00:56:13;;;;;;;;;;;;;;;-1.17;100.00;97857.09;110346;1240;60185;-62
2024/02/03 00:58:42;;;;;;;;;;;;;;;-1.19;100.00;97854.23;110357;1241;71820;-62
2024/02/03 01:01:11;;;;;;;;;;;;;;;-1.20;100.00;97858.36;110363;1243;69956;-62
2024/02/03 01:03:41;;;;;;;;;;;;;;;-1.20;100.00;97855.27;110345;1239;69734;-62
2024/02/03 01:06:10;;;;;;;;;;;;;;;-1.18;100.00;97849.95;110449;1241;59676;-62
2024/02/03 01:08:39;;;;;;;;;;;;;;;-1.19;100.00;97853.72;110330;1241;59675;-62
2024/02/03 01:11:08;;;;;;;;;;;;;;;-1.19;100.00;97844.84;110371;1241;72102;-62
2024/02/03 01:13:37;;;;;;;;;;;;;;;-1.20;100.00;97842.45;110350;1241;69808;-61
2024/02/03 01:16:07;;;;;;;;;;;;;;;-1.20;100.00;97838.34;110364;1244;69661;-61
2024/02/03 01:18:36;;;;;;;;;;;;;;;-1.20;100.00;97832.88;110344;1238;59760;-61
2024/02/03 01:21:05;;;;;;;;;;;;;;;-1.21;100.00;97834.92;110344;1241;60127;-61
2024/02/03 01:23:34;;;;;;;;;;;;;;;-1.21;100.00;97828.11;110188;1245;71604;-61
2024/02/03 01:26:03;;;;;;;;;;;;;;;-1.26;100.00;97830.23;110402;1242;69263;-61
2024/02/03 01:28:32;;;;;;;;;;;;;;;-1.31;100.00;97820.76;110333;1241;68225;-61
2024/02/03 01:31:00;;;;;;;;;;;;;;;-1.35;100.00;97816.91;110389;1240;59678;-62
2024/02/03 01:33:31;;;;;;;;;;;;;;;-1.38;100.00;97819.36;110403;1241;59678;-62
2024/02/03 01:36:00;;;;;;;;;;;;;;;-1.39;100.00;97821.27;110353;1242;71618;-62
2024/02/03 01:38:29;;;;;;;;;;;;;;;-1.40;100.00;97826.40;110444;1242;69478;-62
2024/02/03 01:40:58;;;;;;;;;;;;;;;-1.39;100.00;97826.20;110367;1242;69213;-62
2024/02/03 01:43:26;;;;;;;;;;;;;;;-1.37;100.00;97827.55;110394;1242;59741;-62
2024/02/03 01:45:59;;;;;;;;;;;;;;;-1.36;100.00;97823.07;110395;1242;59592;-62
2024/02/03 01:48:28;;;;;;;;;;;;;;;-1.35;100.00;97820.83;110360;1242;71871;-62
2024/02/03 01:50:57;;;;;;;;;;;;;;;-1.36;100.00;97815.55;110353;1240;69861;-62
2024/02/03 01:53:26;;;;;;;;;;;;;;;-1.36;100.00;97809.06;110363;1241;69502;-62
2024/02/03 01:55:56;;;;;;;;;;;;;;;-1.36;100.00;97808.90;110361;1242;59753;-62
2024/02/03 01:58:25;;;;;;;;;;;;;;;-1.35;100.00;97806.65;110389;1242;59666;-62
2024/02/03 02:00:54;;;;;;;;;;;;;;;-1.35;100.00;97805.09;110478;1248;71392;-62
2024/02/03 02:03:22;;;;;;;;;;;;;;;-1.33;100.00;97792.60;110374;1241;69757;-62
2024/02/03 02:05:51;;;;;;;;;;;;;;;-1.30;100.00;97785.68;110378;1241;69176;-62
2024/02/03 02:08:30;;;;;;;;;;;;;;;-1.27;100.00;97781.19;110409;1241;59732;-62
2024/02/03 02:10:59;;;;;;;;;;;;;;;-1.24;100.00;97779.77;110372;1242;59684;-62
2024/02/03 02:13:29;;;;;;;;;;;;;;;-1.22;100.00;97780.74;110420;1238;71202;-62
2024/02/03 02:15:58;;;;;;;;;;;;;;;-1.21;100.00;97779.52;110375;1241;69823;-62
2024/02/03 02:18:27;;;;;;;;;;;;;;;-1.19;100.00;97768.88;110390;1242;69739;-62
2024/02/03 02:20:57;;;;;;;;;;;;;;;-1.15;100.00;97765.05;110398;1241;59687;-62
2024/02/03 02:23:26;;;;;;;;;;;;;;;-1.14;100.00;97754.06;110322;1242;59683;-61
2024/02/03 02:25:57;;;;;;;;;;;;;;;-1.12;100.00;97743.95;110351;1242;71524;-61
2024/02/03 02:28:25;;;;;;;;;;;;;;;-1.09;100.00;97740.13;110378;1241;70403;-61
2024/02/03 02:30:54;;;;;;;;;;;;;;;-1.08;100.00;97739.73;110349;1242;69124;-61
2024/02/03 02:33:23;;;;;;;;;;;;;;;-1.07;100.00;97744.34;110317;1241;59717;-63
2024/02/03 02:35:53;;;;;;;;;;;;;;;-1.07;100.00;97748.95;110402;1240;59665;-63
2024/02/03 02:38:22;;;;;;;;;;;;;;;-1.07;100.00;97751.35;110385;1241;71207;-61
2024/02/03 02:40:51;;;;;;;;;;;;;;;-1.08;100.00;97757.71;110360;1241;69817;-61
2024/02/03 02:43:19;;;;;;;;;;;;;;;-1.09;100.00;97757.91;110322;1238;69203;-61
2024/02/03 02:45:49;;;;;;;;;;;;;;;-1.11;100.00;97745.97;110357;1243;59732;-61
2024/02/03 02:48:18;;;;;;;;;;;;;;;-1.12;100.00;97740.02;110351;1239;59670;-61
2024/02/03 02:50:47;;;;;;;;;;;;;;;-1.14;100.00;97736.98;110345;1239;71750;-61
2024/02/03 02:53:15;;;;;;;;;;;;;;;-1.17;100.00;97728.13;110345;1241;68777;-61
2024/02/03 02:55:44;;;;;;;;;;;;;;;-1.19;100.00;97722.02;110334;1241;70322;-61
2024/02/03 02:58:13;;;;;;;;;;;;;;;-1.22;100.00;97717.64;110351;1242;60060;-61
2024/02/03 03:00:42;;;;;;;;;;;;;;;-1.26;100.00;97721.48;110428;1242;59678;-61
2024/02/03 03:03:11;;;;;;;;;;;;;;;-1.30;100.00;97714.20;110373;1241;71280;-61
2024/02/03 03:05:39;;;;;;;;;;;;;;;-1.32;100.00;97707.92;110396;1242;68299;-61
2024/02/03 03:08:08;;;;;;;;;;;;;;;-1.34;100.00;97708.98;110423;1241;69225;-63
2024/02/03 03:10:37;;;;;;;;;;;;;;;-1.36;100.00;97706.30;110333;1242;60212;-61
2024/02/03 03:13:06;;;;;;;;;;;;;;;-1.38;100.00;97709.77;110375;1241;59682;-61
2024/02/03 03:15:35;;;;;;;;;;;;;;;-1.37;100.00;97711.12;110369;1241;71779;-61
2024/02/03 03:18:05;;;;;;;;;;;;;;;-1.35;100.00;97712.59;110376;1242;70076;-61
2024/02/03 03:20:34;;;;;;;;;;;;;;;-1.31;100.00;97715.09;110384;1242;69713;-61
2024/02/03 03:23:03;;;;;;;;;;;;;;;-1.27;100.00;97717.92;110417;1240;59766;-61
2024/02/03 03:25:32;;;;;;;;;;;;;;;-1.24;100.00;97720.24;110437;1242;59682;-61
2024/02/03 03:28:01;;;;;;;;;;;;;;;-1.21;100.00;97715.55;110374;1242;70906;-61
2024/02/03 03:30:29;;;;;;;;;;;;;;;-1.18;100.00;97718.25;110445;1242;69220;-61
2024/02/03 03:32:58;;;;;;;;;;;;;;;-1.17;100.00;97714.27;110371;1242;69808;-61
2024/02/03 03:35:27;;;;;;;;;;;;;;;-1.15;100.00;97707.73;110424;1244;59737;-62
2024/02/03 03:37:57;;;;;;;;;;;;;;;-1.12;100.00;97703.56;110395;1240;59653;-61
2024/02/03 03:40:26;;;;;;;;;;;;;;;-1.08;100.00;97706.73;110428;1249;70886;-62
2024/02/03 03:42:55;;;;;;;;;;;;;;;-1.03;100.00;97706.64;110402;1241;69839;-62
2024/02/03 03:45:24;;;;;;;;;;;;;;;-0.99;100.00;97708.58;110370;1242;69858;-61
2024/02/03 03:47:52;;;;;;;;;;;;;;;-0.95;100.00;97708.50;110420;1241;59738;-61
2024/02/03 03:50:21;;;;;;;;;;;;;;;-0.91;100.00;97707.22;110229;1243;59717;-61
2024/02/03 03:52:50;;;;;;;;;;;;;;;-0.88;100.00;97699.62;110443;1241;71947;-62
2024/02/03 03:55:19;;;;;;;;;;;;;;;-0.86;100.00;97702.14;110414;1242;69457;-61
2024/02/03 03:57:48;;;;;;;;;;;;;;;-0.83;100.00;97698.99;110414;1242;69869;-61
2024/02/03 04:00:17;;;;;;;;;;;;;;;-0.81;100.00;97693.81;110387;1244;59750;-62
2024/02/03 04:02:46;;;;;;;;;;;;;;;-0.78;100.00;97694.95;110476;1242;59713;-62
2024/02/03 04:05:15;;;;;;;;;;;;;;;-0.76;100.00;97691.45;110396;1242;71982;-61
2024/02/03 04:07:44;;;;;;;;;;;;;;;-0.72;100.00;97687.27;110464;1243;69831;-62
2024/02/03 04:10:13;;;;;;;;;;;;;;;-0.71;100.00;97687.59;110432;1241;69878;-62
2024/02/03 04:12:41;;;;;;;;;;;;;;;-0.69;100.00;97685.84;110422;1241;59692;-62
2024/02/03 04:15:11;;;;;;;;;;;;;;;-0.67;100.00;97683.55;110402;1241;59696;-63
2024/02/03 04:17:39;;;;;;;;;;;;;;;-0.64;100.00;97679.37;110516;1244;71856;-62
2024/02/03 04:20:09;;;;;;;;;;;;;;;-0.62;100.00;97677.44;110403;1243;69282;-62
2024/02/03 04:22:38;;;;;;;;;;;;;;;-0.61;100.00;97675.01;110402;1240;69232;-62
2024/02/03 04:25:07;;;;;;;;;;;;;;;-0.62;100.00;97677.95;110413;1242;59706;-64
2024/02/03 04:27:36;;;;;;;;;;;;;;;-0.61;100.00;97678.09;110412;1242;59640;-63
2024/02/03 04:30:05;;;;;;;;;;;;;;;-0.61;100.00;97677.27;110420;1241;70928;-63
2024/02/03 04:32:52;;;;;;;;;;;;;;;-0.60;100.00;97679.80;110494;1243;69654;-64
2024/02/03 04:35:22;;;;;;;;;;;;;;;-0.59;100.00;97680.13;110445;1242;69869;-62
2024/02/03 04:37:50;;;;;;;;;;;;;;;-0.57;100.00;97675.60;110387;1242;59665;-61
2024/02/03 04:40:19;;;;;;;;;;;;;;;-0.54;100.00;97666.30;110377;1249;59683;-61
2024/02/03 04:42:48;;;;;;;;;;;;;;;-0.58;100.00;97659.18;110494;1242;72192;-64
2024/02/03 04:45:17;;;;;;;;;;;;;;;-0.59;100.00;97661.45;110490;1242;69296;-62
2024/02/03 04:47:47;;;;;;;;;;;;;;;-0.62;100.00;97654.85;110356;1242;69215;-63
2024/02/03 04:50:16;;;;;;;;;;;;;;;-0.67;100.00;97649.00;110373;1242;59630;-62
2024/02/03 04:52:44;;;;;;;;;;;;;;;-0.69;100.00;97650.56;110363;1241;59670;-62
2024/02/03 04:55:13;;;;;;;;;;;;;;;-0.70;100.00;97653.31;110356;1249;72107;-61
2024/02/03 04:57:42;;;;;;;;;;;;;;;-0.70;100.00;97653.16;110372;1241;68424;-63
2024/02/03 05:00:11;;;;;;;;;;;;;;;-0.69;100.00;97651.27;110312;1242;69265;-62
2024/02/03 05:02:41;;;;;;;;;;;;;;;-0.67;100.00;97652.94;110416;1242;59739;-62
2024/02/03 05:05:09;;;;;;;;;;;;;;;-0.64;100.00;97653.54;110442;1241;59628;-62
2024/02/03 05:07:38;;;;;;;;;;;;;;;-0.63;100.00;97645.30;110486;1243;72100;-63
2024/02/03 05:10:07;;;;;;;;;;;;;;;-0.63;100.00;97636.73;110489;1249;69241;-63
2024/02/03 05:12:36;;;;;;;;;;;;;;;-0.64;100.00;97636.42;110329;1242;69116;-63
2024/02/03 05:15:05;;;;;;;;;;;;;;;-0.67;100.00;97637.00;110449;1241;59742;-63
2024/02/03 05:17:33;;;;;;;;;;;;;;;-0.71;100.00;97631.95;110471;1241;59677;-63
2024/02/03 05:20:05;;;;;;;;;;;;;;;-0.74;100.00;97627.08;110380;1241;72026;-62
2024/02/03 05:22:35;;;;;;;;;;;;;;;-0.78;100.00;97623.06;110480;1242;69158;-63
2024/02/03 05:25:04;;;;;;;;;;;;;;;-0.80;100.00;97624.46;110410;1242;69096;-62
2024/02/03 05:27:33;;;;;;;;;;;;;;;-0.82;100.00;97626.23;110416;1241;59728;-62
2024/02/03 05:30:02;;;;;;;;;;;;;;;-0.79;100.00;97632.84;110382;1241;60099;-62
2024/02/03 05:32:30;;;;;;;;;;;;;;;-0.76;100.00;97634.66;110336;1242;71830;-62
2024/02/03 05:34:59;;;;;;;;;;;;;;;-0.73;100.00;97632.02;110336;1241;70013;-62
2024/02/03 05:37:28;;;;;;;;;;;;;;;-0.70;100.00;97634.85;110308;1241;69127;-62
2024/02/03 05:39:57;;;;;;;;;;;;;;;-0.66;100.00;97632.02;110363;1241;60019;-62
2024/02/03 05:42:29;;;;;;;;;;;;;;;-0.62;100.00;97625.73;110340;1238;59671;-62
2024/02/03 05:44:58;;;;;;;;;;;;;;;-0.58;100.00;97625.81;110457;1242;72110;-62
2024/02/03 05:47:27;;;;;;;;;;;;;;;-0.56;100.00;97630.20;110358;1241;69506;-62
2024/02/03 05:49:56;;;;;;;;;;;;;;;-0.53;100.00;97628.43;110319;1242;69473;-62
2024/02/03 05:52:25;;;;;;;;;;;;;;;-0.49;100.00;97631.25;110314;1241;59729;-62
2024/02/03 05:54:53;;;;;;;;;;;;;;;-0.46;100.00;97626.56;110318;1241;59626;-62
2024/02/03 05:57:22;;;;;;;;;;;;;;;-0.43;100.00;97624.75;110334;1242;71358;-62
2024/02/03 05:59:51;;;;;;;;;;;;;;;-0.40;100.00;97625.55;110148;1244;69212;-63
2024/02/03 06:02:20;;;;;;;;;;;;;;;-0.37;100.00;97627.34;110331;1238;69935;-62
2024/02/03 06:04:49;;;;;;;;;;;;;;;-0.33;100.00;97627.77;110286;1240;59701;-63
2024/02/03 06:07:18;;;;;;;;;;;;;;;-0.31;100.00;97629.77;110343;1242;59680;-63
2024/02/03 06:09:48;;;;;;;;;;;;;;;-0.28;100.00;97631.73;110359;1242;71315;-62
2024/02/03 06:12:16;;;;;;;;;;;;;;;-0.25;100.00;97630.44;110317;1243;69171;-62
2024/02/03 06:14:46;;;;;;;;;;;;;;;-0.22;100.00;97631.41;110373;1249;69892;-62
2024/02/03 06:17:14;;;;;;;;;;;;;;;-0.18;100.00;97633.54;110358;1242;59761;-63
2024/02/03 06:19:43;;;;;;;;;;;;;;;-0.16;100.00;97633.32;110381;1241;59647;-62
2024/02/03 06:22:12;;;;;;;;;;;;;;;-0.14;100.00;97633.42;110409;1242;71240;-62
2024/02/03 06:24:41;;;;;;;;;;;;;;;-0.11;100.00;97635.05;110422;1239;69275;-63
2024/02/03 06:27:10;;;;;;;;;;;;;;;-0.07;100.00;97635.30;110396;1242;68499;-63
2024/02/03 06:29:39;;;;;;;;;;;;;;;-0.04;100.00;97643.60;110217;1243;59756;-63
2024/02/03 06:32:08;;;;;;;;;;;;;;;0.00;100.00;97639.70;110447;1249;59700;-62
2024/02/03 06:34:36;;;;;;;;;;;;;;;0.07;100.00;97647.95;110223;1242;70342;-63
2024/02/03 06:37:05;;;;;;;;;;;;;;;0.13;100.00;97642.99;110496;1243;69813;-62
2024/02/03 06:39:34;;;;;;;;;;;;;;;0.19;100.00;97647.44;110455;1243;70138;-63
2024/02/03 06:42:03;;;;;;;;;;;;;;;0.30;100.00;97639.77;110417;1241;59744;-62
2024/02/03 06:44:32;;;;;;;;;;;;;;;0.38;100.00;97642.61;110608;1240;59646;-62
2024/02/03 06:47:01;;;;;;;;;;;;;;;0.44;100.00;97647.58;110492;1241;71283;-63
2024/02/03 06:49:29;;;;;;;;;;;;;;;0.48;100.00;97641.98;110526;1240;69188;-62
2024/02/03 06:51:58;;;;;;;;;;;;;;;0.48;100.00;97647.30;110543;1242;68553;-63
2024/02/03 06:54:27;;;;;;;;;;;;;;;0.52;100.00;97648.07;110517;1242;60083;-62
2024/02/03 06:56:56;;;;;;;;;;;;;;;0.55;100.00;97647.48;110490;1242;59695;-61
2024/02/03 06:59:25;;;;;;;;;;;;;;;0.59;100.00;97645.80;110395;1238;71339;-62
2024/02/03 07:01:53;;;;;;;;;;;;;;;0.60;100.00;97640.29;110203;1242;69952;-62
2024/02/03 07:04:22;;;;;;;;;;;;;;;0.67;100.00;97645.04;110440;1249;69274;-62
2024/02/03 07:06:51;;;;;;;;;;;;;;;0.71;100.00;97632.05;110495;1241;59740;-62
2024/02/03 07:09:20;;;;;;;;;;;;;;;0.74;100.00;97629.92;110415;1248;59676;-62
2024/02/03 07:11:48;;;;;;;;;;;;;;;0.74;100.00;97635.92;110568;1241;71918;-62
2024/02/03 07:14:31;;;;;;;;;;;;;;;0.71;100.00;97640.81;110588;1241;69848;-62
2024/02/03 07:16:59;;;;;;;;;;;;;;;0.69;100.00;97638.13;110224;1243;70165;-62
2024/02/03 07:19:28;;;;;;;;;;;;;;;0.68;100.00;97635.73;110416;1241;59706;-62
2024/02/03 07:21:57;;;;;;;;;;;;;;;0.69;100.00;97634.87;110424;1242;59631;-62
2024/02/03 07:24:26;;;;;;;;;;;;;;;0.68;100.00;97629.90;110161;1242;71186;-62
2024/02/03 07:26:55;;;;;;;;;;;;;;;0.67;100.00;97629.44;110351;1239;68569;-62
2024/02/03 07:29:24;;;;;;;;;;;;;;;0.67;100.00;97631.66;110299;1241;69293;-63
2024/02/03 07:31:58;;;;;;;;;;;;;;;0.68;100.00;97638.82;110368;1242;59692;-62
2024/02/03 07:34:28;;;;;;;;;;;;;;;0.68;100.00;97637.30;110310;1242;59637;-62
2024/02/03 07:36:57;;;;;;;;;;;;;;;0.68;100.00;97632.81;110414;1238;71221;-63
2024/02/03 07:39:26;;;;;;;;;;;;;;;0.67;100.00;97635.59;110378;1238;69687;-62
2024/02/03 07:41:55;;;;;;;;;;;;;;;0.68;100.00;97632.66;110124;1243;68758;-64
2024/02/03 07:44:24;;;;;;;;;;;;;;;0.70;100.00;97628.82;110354;1238;59739;-62
2024/02/03 07:46:53;;;;;;;;;;;;;;;0.73;100.00;97629.06;110396;1241;59636;-62
2024/02/03 07:49:21;;;;;;;;;;;;;;;0.77;100.00;97627.60;110479;1249;71114;-62
2024/02/03 07:51:51;;;;;;;;;;;;;;;0.81;100.00;97628.84;110472;1241;69817;-62
2024/02/03 07:54:20;;;;;;;;;;;;;;;0.86;100.00;97628.18;110467;1238;69287;-62
2024/02/03 07:56:48;;;;;;;;;;;;;;;0.90;100.00;97634.23;110423;1241;59675;-62
2024/02/03 07:59:18;;;;;;;;;;;;;;;0.93;100.00;97639.98;110508;1238;59622;-62
2024/02/03 08:01:47;;;;;;;;;;;;;;;0.96;100.00;97641.06;110334;1241;71849;-62
2024/02/03 08:04:16;;;;;;;;;;;;;;;0.98;100.00;97642.22;110429;1241;68756;-62
2024/02/03 08:06:45;;;;;;;;;;;;;;;0.99;100.00;97642.34;110320;1241;69931;-61
2024/02/03 08:09:14;;;;;;;;;;;;;;;1.05;100.00;97635.32;110349;1241;59763;-63
2024/02/03 08:11:43;;;;;;;;;;;;;;;1.09;100.00;97629.02;110337;1243;59708;-62
2024/02/03 08:14:12;;;;;;;;;;;;;;;1.12;100.00;97616.23;110433;1238;71328;-63
2024/02/03 08:16:41;;;;;;;;;;;;;;;1.12;100.00;97611.91;110276;1242;69765;-62
2024/02/03 08:19:09;;;;;;;;;;;;;;;1.15;100.00;97612.32;110402;1239;69391;-63
2024/02/03 08:21:38;;;;;;;;;;;;;;;1.27;100.00;97611.79;110432;1241;59755;-63
2024/02/03 08:24:07;;;;;;;;;;;;;;;1.34;100.00;97611.04;110512;1241;59671;-62
2024/02/03 08:26:35;;;;;;;;;;;;;;;1.36;100.00;97615.42;110457;1240;71445;-63
2024/02/03 08:29:08;;;;;;;;;;;;;;;1.34;100.00;97616.86;110417;1241;68914;-63
2024/02/03 08:31:36;;;;;;;;;;;;;;;1.38;100.00;97619.64;110372;1242;68964;-63
2024/02/03 08:34:05;;;;;;;;;;;;;;;1.41;100.00;97615.43;110386;1241;59709;-63
2024/02/03 08:36:34;;;;;;;;;;;;;;;1.43;100.00;97618.64;110475;1240;59726;-63
2024/02/03 08:39:03;;;;;;;;;;;;;;;1.45;100.00;97609.46;110380;1242;71823;-62
2024/02/03 08:41:32;;;;;;;;;;;;;;;1.49;100.00;97607.09;110375;1241;69793;-63
2024/02/03 08:44:01;;;;;;;;;;;;;;;1.56;100.00;97600.36;110356;1241;69886;-63
2024/02/03 08:46:30;;;;;;;;;;;;;;;1.61;100.00;97599.84;110407;1248;59731;-62
2024/02/03 08:48:59;;;;;;;;;;;;;;;1.67;100.00;97600.98;110372;1242;59686;-63
2024/02/03 08:51:27;;;;;;;;;;;;;;;1.75;100.00;97591.60;110406;1238;71952;-63
2024/02/03 08:53:57;;;;;;;;;;;;;;;1.83;100.00;97580.33;110402;1242;69245;-63
2024/02/03 08:56:26;;;;;;;;;;;;;;;1.87;100.00;97578.30;110350;1241;69888;-63
2024/02/03 08:58:54;;;;;;;;;;;;;;;1.93;100.00;97578.92;110403;1242;59708;-62
2024/02/03 09:01:24;;;;;;;;;;;;;;;2.02;100.00;97578.13;110355;1241;59650;-62
2024/02/03 09:03:53;;;;;;;;;;;;;;;2.10;100.00;97570.42;110387;1242;71468;-62
2024/02/03 09:06:22;;;;;;;;;;;;;;;2.22;100.00;97571.20;110351;1238;69616;-64
2024/02/03 09:08:51;;;;;;;;;;;;;;;2.22;100.00;97571.02;110335;1242;69865;-62
2024/02/03 09:11:19;;;;;;;;;;;;;;;2.28;100.00;97577.50;110388;1242;59691;-64
2024/02/03 09:13:48;;;;;;;;;;;;;;;2.28;100.00;97581.63;110377;1241;59641;-61
2024/02/03 09:16:17;;;;;;;;;;;;;;;2.38;100.00;97578.52;110454;1242;71524;-64
2024/02/03 09:18:45;;;;;;;;;;;;;;;2.30;100.00;97583.95;110360;1242;69021;-63
2024/02/03 09:21:14;;;;;;;;;;;;;;;2.36;100.00;97587.71;110375;1240;69263;-63
2024/02/03 09:23:47;;;;;;;;;;;;;;;2.35;100.00;97584.81;110379;1238;60368;-62
2024/02/03 09:26:16;;;;;;;;;;;;;;;2.37;100.00;97581.63;110395;1238;59682;-62
2024/02/03 09:28:45;;;;;;;;;;;;;;;2.31;100.00;97582.73;110355;1239;72253;-62
2024/02/03 09:31:18;;;;;;;;;;;;;;;2.24;100.00;97582.48;110397;1241;69889;-62
2024/02/03 09:33:47;;;;;;;;;;;;;;;2.27;100.00;97581.66;110357;1241;69839;-62
2024/02/03 09:36:16;;;;;;;;;;;;;;;2.26;100.00;97584.45;110454;1239;59681;-62
2024/02/03 09:38:45;;;;;;;;;;;;;;;2.27;100.00;97578.93;110401;1238;59740;-62
2024/02/03 09:41:14;;;;;;;;;;;;;;;2.25;100.00;97575.73;110377;1238;71409;-62
2024/02/03 09:43:42;;;;;;;;;;;;;;;2.20;100.00;97574.02;110383;1241;69212;-62
2024/02/03 09:46:11;;;;;;;;;;;;;;;2.19;100.00;97573.02;110368;1243;68922;-62
2024/02/03 09:48:40;;;;;;;;;;;;;;;2.17;100.00;97569.50;110454;1241;59750;-62
2024/02/03 09:51:10;;;;;;;;;;;;;;;2.11;100.00;97564.90;110398;1241;59765;-62
2024/02/03 09:53:39;;;;;;;;;;;;;;;2.19;100.00;97566.34;110444;1242;69710;-62
2024/02/03 09:56:08;;;;;;;;;;;;;;;2.15;100.00;97564.59;110373;1238;69772;-62
2024/02/03 09:58:36;;;;;;;;;;;;;;;2.12;100.00;97569.34;110381;1238;69899;-62
2024/02/03 10:01:09;;;;;;;;;;;;;;;2.04;100.00;97568.77;110366;1241;59712;-62
2024/02/03 10:03:41;;;;;;;;;;;;;;;2.10;100.00;97563.59;110378;1248;59689;-62
2024/02/03 10:06:10;;;;;;;;;;;;;;;2.20;100.00;97563.70;110356;1238;71905;-62
2024/02/03 10:08:49;;;;;;;;;;;;;;;2.19;100.00;97564.60;110356;1243;69694;-62
2024/02/03 10:11:20;;;;;;;;;;;;;;;2.17;100.00;97565.88;110416;1240;70227;-61
2024/02/03 10:14:00;;;;;;;;;;;;;;;2.16;100.00;97569.36;110391;1241;60136;-63
2024/02/03 10:16:29;;;;;;;;;;;;;;;2.12;100.00;97565.39;110416;1241;60105;-61
2024/02/03 10:18:58;;;;;;;;;;;;;;;2.16;100.00;97561.63;110421;1238;71346;-63
2024/02/03 10:21:27;;;;;;;;;;;;;;;2.23;100.00;97562.92;110476;1238;69216;-63
2024/02/03 10:23:55;;;;;;;;;;;;;;;2.26;100.00;97564.50;110441;1240;68391;-62
2024/02/03 10:26:24;;;;;;;;;;;;;;;2.21;100.00;97564.70;110461;1248;59659;-61
2024/02/03 10:28:53;;;;;;;;;;;;;;;2.22;100.00;97565.02;110393;1240;59697;-61
2024/02/03 10:31:21;;;;;;;;;;;;;;;2.30;100.00;97559.88;110435;1238;71963;-61
2024/02/03 10:33:50;;;;;;;;;;;;;;;2.28;100.00;97564.10;110389;1240;69889;-62
2024/02/03 10:36:19;;;;;;;;;;;;;;;2.21;100.00;97567.30;110388;1244;69600;-62
2024/02/03 10:38:48;;;;;;;;;;;;;;;2.18;100.00;97569.30;110466;1240;60040;-62
2024/02/03 10:41:20;;;;;;;;;;;;;;;2.24;100.00;97561.33;110521;1241;59682;-62
2024/02/03 10:43:52;;;;;;;;;;;;;;;2.20;100.00;97565.77;110469;1241;71189;-62
2024/02/03 10:46:21;;;;;;;;;;;;;;;2.17;100.00;97567.59;110368;1241;69653;-62
2024/02/03 10:48:51;;;;;;;;;;;;;;;2.19;100.00;97564.93;110379;1241;70014;-62
2024/02/03 10:51:23;;;;;;;;;;;;;;;2.19;100.00;97563.20;110475;1238;59791;-62
2024/02/03 10:54:17;;;;;;;;;;;;;;;2.28;100.00;97552.08;110460;1241;59685;-62
2024/02/03 10:56:49;;;;;;;;;;;;;;;2.36;100.00;97548.83;110467;1238;71972;-62
2024/02/03 10:59:21;;;;;;;;;;;;;;;2.32;100.00;97548.29;110409;1241;68444;-62
2024/02/03 11:01:50;;;;;;;;;;;;;;;2.38;100.00;97541.19;110365;1238;70199;-62
2024/02/03 11:04:19;;;;;;;;;;;;;;;2.39;100.00;97542.90;110442;1241;59731;-62
2024/02/03 11:06:49;;;;;;;;;;;;;;;2.39;100.00;97544.91;110359;1238;60162;-62
2024/02/03 11:09:20;;;;;;;;;;;;;;;2.46;100.00;97538.64;110365;1238;71931;-62
2024/02/03 11:11:53;;;;;;;;;;;;;;;2.50;100.00;97535.55;110378;1240;69427;-62
2024/02/03 11:14:29;;;;;;;;;;;;;;;2.45;100.00;97540.58;109989;1240;531966;-62
2024/02/03 11:16:59;;;;;;;;;;;;;;;2.49;100.00;97548.02;110443;1240;59688;-62
2024/02/03 11:19:34;;;;;;;;;;;;;;;2.52;100.00;97550.99;110412;1241;59666;-62
2024/02/03 11:22:04;;;;;;;;;;;;;;;2.54;100.00;97558.80;110428;1241;70722;-62
2024/02/03 11:24:34;;;;;;;;;;;;;;;2.63;100.00;97560.70;110557;1248;69662;-62
2024/02/03 11:27:07;;;;;;;;;;;;;;;2.63;100.00;97558.16;110432;1245;68899;-61
2024/02/03 11:29:37;;;;;;;;;;;;;;;2.67;100.00;97554.34;110473;1241;59776;-62
2024/02/03 11:32:10;;;;;;;;;;;;;;;2.63;100.00;97551.24;110502;1238;59666;-62
2024/02/03 11:34:40;;;;;;;;;;;;;;;2.72;100.00;97551.06;110436;1238;71869;-62
2024/02/03 11:37:13;;;;;;;;;;;;;;;2.68;100.00;97552.94;110466;1238;69482;-62
2024/02/03 11:39:42;;;;;;;;;;;;;;;2.73;100.00;97549.98;110457;1241;69867;-62
2024/02/03 11:42:11;;;;;;;;;;;;;;;2.70;100.00;97551.66;110535;1238;59741;-62
2024/02/03 11:44:57;;;;;;;;;;;;;;;2.79;100.00;97547.17;110486;1241;59728;-62
2024/02/03 11:47:26;;;;;;;;;;;;;;;2.77;100.00;97553.80;110374;1238;70988;-62
2024/02/03 11:49:55;;;;;;;;;;;;;;;2.81;100.00;97548.98;110362;1238;69934;-62
2024/02/03 11:52:24;;;;;;;;;;;;;;;2.82;100.00;97540.50;110375;1240;70281;-62
2024/02/03 11:54:54;;;;;;;;;;;;;;;2.90;100.00;97533.32;110431;1238;59669;-62
2024/02/03 11:57:23;;;;;;;;;;;;;;;2.94;100.00;97534.52;110421;1238;59685;-62
2024/02/03 12:00:05;;;;;;;;;;;;;;;2.94;100.00;97533.66;110395;1241;71940;-62
2024/02/03 12:02:35;;;;;;;;;;;;;;;2.98;100.00;97529.86;110503;1238;69689;-63
2024/02/03 12:05:04;;;;;;;;;;;;;;;3.00;100.00;97533.08;110370;1238;69077;-63
2024/02/03 12:07:34;;;;;;;;;;;;;;;3.02;100.00;97536.09;110360;1241;59692;-62
2024/02/03 12:10:04;;;;;;;;;;;;;;;2.99;100.00;97535.69;110393;1241;59660;-62
2024/02/03 12:12:35;;;;;;;;;;;;;;;3.02;100.00;97533.84;110370;1238;71383;-62
2024/02/03 12:15:07;;;;;;;;;;;;;;;2.97;100.00;97530.80;110373;1241;68257;-63
2024/02/03 12:17:36;;;;;;;;;;;;;;;3.00;100.00;97526.56;110500;1238;69241;-63
2024/02/03 12:20:26;;;;;;;;;;;;;;;3.00;100.00;97526.17;110480;1240;59703;-62
2024/02/03 12:22:59;;;;;;;;;;;;;;;3.06;100.00;97527.68;110406;1238;59702;-62
2024/02/03 12:25:28;;;;;;;;;;;;;;;3.09;100.00;97518.95;110374;1240;71914;-62
2024/02/03 12:27:56;;;;;;;;;;;;;;;3.14;100.00;97513.90;110352;1238;69650;-63
2024/02/03 12:30:25;;;;;;;;;;;;;;;3.16;100.00;97511.76;110377;1241;69785;-63
2024/02/03 12:32:54;;;;;;;;;;;;;;;3.21;100.00;97505.52;110366;1241;59608;-63
2024/02/03 12:35:22;;;;;;;;;;;;;;;3.22;100.00;97498.06;110395;1241;59686;-62
2024/02/03 12:37:51;;;;;;;;;;;;;;;3.26;100.00;97489.81;110205;1242;71489;-63
2024/02/03 12:40:20;;;;;;;;;;;;;;;3.31;100.00;97488.72;110356;1241;69235;-62
2024/02/03 12:42:49;;;;;;;;;;;;;;;3.39;100.00;97490.29;110444;1241;69810;-63